Dobrynya Nikitich — ERQM — position and weather

sailwx.info

Track history (hours):
 
Tides and Currents Weather Stations Pressure Air Temp Water Temp Dewpoint Dewpoint Depression Visibility Wind Speed Wind Dir Waves Ship Positions

Dobrynya Nikitich

Last reported at 2017-Oct-15 11:42 UTC. Time now 2017-Oct-19 13:17 UTC.
Position N 45°32' E 036°47'.

Length 138 m; draft 2.7 m.

Type: Cargo ship. MMSI: 214181713.

Date/timePositionNaut miles runAvg speedWind from/ knotsBaromVisibWave heightAir tempDewpointWater temp
2017-Oct-15 11:42N 45°32' E 036°47'1 5.5
2017-Oct-15 11:30N 45°31' E 036°46'3 5.3
2017-Oct-15 11:00N 45°29' E 036°43'3 6.0
2017-Oct-15 10:31N 45°26' E 036°43'3 6.2
2017-Oct-15 10:00N 45°23' E 036°41'3 5.7
2017-Oct-15 09:30N 45°21' E 036°38'3 6.7
2017-Oct-15 09:00N 45°20' E 036°34'4 7.7
2017-Oct-15 08:30N 45°18' E 036°29'2 3.6
2017-Oct-15 08:01N 45°16' E 036°29'2 3.6
2017-Oct-15 07:30N 45°14' E 036°29'2 5.0
2017-Oct-15 07:00N 45°12' E 036°29'2 0.1
2017-Oct-14 00:44N 45°10' E 036°29'0 0.0
2017-Oct-14 00:23N 45°10' E 036°29'0 0.0
2017-Oct-13 23:50N 45°10' E 036°29'0 0.0
2017-Oct-13 19:29N 45°10' E 036°29'0 0.0
2017-Oct-13 13:20N 45°10' E 036°29'0 0.0
2017-Oct-13 12:59N 45°10' E 036°29'0 0.0
2017-Oct-13 11:11N 45°10' E 036°29'0 0.0
2017-Oct-13 10:41N 45°10' E 036°29'0 0.0
2017-Oct-13 10:05N 45°10' E 036°29'0 0.0
2017-Oct-13 09:47N 45°10' E 036°29'0 0.0
2017-Oct-13 08:29N 45°10' E 036°29'0 0.0
2017-Oct-13 07:50N 45°10' E 036°29'0 0.0
2017-Oct-13 07:11N 45°10' E 036°29'0 0.0
2017-Oct-13 06:47N 45°10' E 036°29'0 0.0
2017-Oct-13 06:29N 45°10' E 036°29'0 0.0
2017-Oct-13 05:53N 45°10' E 036°29'0 0.0
2017-Oct-13 05:23N 45°10' E 036°29'0 0.0
2017-Oct-13 04:56N 45°10' E 036°29'0 0.0
2017-Oct-13 02:23N 45°10' E 036°29'0 0.0
2017-Oct-12 21:47N 45°10' E 036°29'0 0.0
2017-Oct-12 21:26N 45°10' E 036°29'0 0.0
2017-Oct-12 20:05N 45°10' E 036°29'0 0.0
2017-Oct-12 19:59N 45°10' E 036°29'0 0.0
2017-Oct-12 16:11N 45°10' E 036°29'0 0.8
2017-Oct-12 16:00N 45°10' E 036°29'  
2017-Oct-10 03:21N 40°59' E 028°60'6 0.5
2017-Oct-09 15:50N 40°54' E 028°56'3 7.7
2017-Oct-09 15:29N 40°52' E 028°53'  
Track history (hours):
 
Tides and Currents Weather Stations Pressure Air Temp Water Temp Dewpoint Dewpoint Depression Visibility Wind Speed Wind Dir Waves Ship Positions

Dobrynya Nikitich

Last reported at 2017-Oct-15 11:42 UTC. Time now 2017-Oct-19 13:17 UTC.
Position N 45°32' E 036°47'.

Length 138 m; draft 2.7 m.

Type: Cargo ship. MMSI: 214181713.

Date/timePositionNaut miles runAvg speedWind from/ knotsBaromVisibWave heightAir tempDewpointWater temp
2017-Oct-15 11:42N 45°32' E 036°47'1 5.5
2017-Oct-15 11:30N 45°31' E 036°46'3 5.3
2017-Oct-15 11:00N 45°29' E 036°43'3 6.0
2017-Oct-15 10:31N 45°26' E 036°43'3 6.2
2017-Oct-15 10:00N 45°23' E 036°41'3 5.7
2017-Oct-15 09:30N 45°21' E 036°38'3 6.7
2017-Oct-15 09:00N 45°20' E 036°34'4 7.7
2017-Oct-15 08:30N 45°18' E 036°29'2 3.6
2017-Oct-15 08:01N 45°16' E 036°29'2 3.6
2017-Oct-15 07:30N 45°14' E 036°29'2 5.0
2017-Oct-15 07:00N 45°12' E 036°29'2 0.1
2017-Oct-14 00:44N 45°10' E 036°29'0 0.0
2017-Oct-14 00:23N 45°10' E 036°29'0 0.0
2017-Oct-13 23:50N 45°10' E 036°29'0 0.0
2017-Oct-13 19:29N 45°10' E 036°29'0 0.0
2017-Oct-13 13:20N 45°10' E 036°29'0 0.0
2017-Oct-13 12:59N 45°10' E 036°29'0 0.0
2017-Oct-13 11:11N 45°10' E 036°29'0 0.0
2017-Oct-13 10:41N 45°10' E 036°29'0 0.0
2017-Oct-13 10:05N 45°10' E 036°29'0 0.0
2017-Oct-13 09:47N 45°10' E 036°29'0 0.0
2017-Oct-13 08:29N 45°10' E 036°29'0 0.0
2017-Oct-13 07:50N 45°10' E 036°29'0 0.0
2017-Oct-13 07:11N 45°10' E 036°29'0 0.0
2017-Oct-13 06:47N 45°10' E 036°29'0 0.0
2017-Oct-13 06:29N 45°10' E 036°29'0 0.0
2017-Oct-13 05:53N 45°10' E 036°29'0 0.0
2017-Oct-13 05:23N 45°10' E 036°29'0 0.0
2017-Oct-13 04:56N 45°10' E 036°29'0 0.0
2017-Oct-13 02:23N 45°10' E 036°29'0 0.0
2017-Oct-12 21:47N 45°10' E 036°29'0 0.0
2017-Oct-12 21:26N 45°10' E 036°29'0 0.0
2017-Oct-12 20:05N 45°10' E 036°29'0 0.0
2017-Oct-12 19:59N 45°10' E 036°29'0 0.0
2017-Oct-12 16:11N 45°10' E 036°29'0 0.8
2017-Oct-12 16:00N 45°10' E 036°29'  
2017-Oct-10 03:21N 40°59' E 028°60'6 0.5
2017-Oct-09 15:50N 40°54' E 028°56'3 7.7
2017-Oct-09 15:29N 40°52' E 028°53'  

Dump ship's entire track history